Time;durP1;ratioP1;P1;durP2;ratioP2;P2;SDS_P1;SDS_P2;PMS_P1;PMS_P2;Temp;Humidity;BMP_temperature;BMP_pressure;BME280_temperature;BME280_humidity;BME280_pressure;Samples;Min_cycle;Max_cycle;Signal;HPM_P1;HPM_P2
2023/06/13 00:01:16;;;;;;;6.17;4.87;;;18.60;99.90;;;;;;6107499;23;20426;-84
2023/06/13 00:03:47;;;;;;;3.70;3.40;;;18.60;99.90;;;;;;6107388;23;20485;-83
2023/06/13 00:06:15;;;;;;;7.97;3.70;;;18.50;99.90;;;;;;6108448;23;20407;-84
2023/06/13 00:08:44;;;;;;;4.07;3.63;;;18.50;99.90;;;;;;6107665;23;20428;-84
2023/06/13 00:11:11;;;;;;;3.40;3.10;;;18.50;99.90;;;;;;6108154;23;20452;-83
2023/06/13 00:13:39;;;;;;;4.30;3.43;;;18.40;99.90;;;;;;6108641;23;20505;-85
2023/06/13 00:16:07;;;;;;;4.43;3.77;;;18.40;99.90;;;;;;6107505;23;20410;-85
2023/06/13 00:18:37;;;;;;;4.00;3.57;;;18.40;99.90;;;;;;6107288;23;20449;-84
2023/06/13 00:21:06;;;;;;;3.90;3.33;;;18.40;99.90;;;;;;6108348;23;20453;-83
2023/06/13 00:23:33;;;;;;;3.80;3.50;;;18.40;99.90;;;;;;6107117;23;20501;-83
2023/06/13 00:26:01;;;;;;;5.40;3.40;;;18.40;99.90;;;;;;6106594;23;20417;-84
2023/06/13 00:28:28;;;;;;;4.47;3.23;;;;;;;;;;6114335;23;20498;-84
2023/06/13 00:30:55;;;;;;;5.20;3.10;;;18.40;99.90;;;;;;6114069;23;20521;-84
2023/06/13 00:33:31;;;;;;;4.17;3.77;;;18.30;99.90;;;;;;6117648;23;20443;-84
2023/06/13 00:35:58;;;;;;;3.70;3.47;;;18.20;99.90;;;;;;6116137;23;20402;-84
2023/06/13 00:38:24;;;;;;;4.23;3.43;;;18.30;99.90;;;;;;6113969;23;20438;-84
2023/06/13 00:40:52;;;;;;;5.23;3.10;;;18.00;1.00;;;;;;6111538;23;20481;-84
2023/06/13 00:43:20;;;;;;;4.17;3.23;;;18.10;99.90;;;;;;6112886;23;20428;-84
2023/06/13 00:45:47;;;;;;;3.83;3.53;;;18.10;99.90;;;;;;6109765;23;20430;-85
2023/06/13 00:48:14;;;;;;;3.93;3.63;;;18.10;99.90;;;;;;6106473;23;20410;-84
2023/06/13 00:50:44;;;;;;;4.20;3.60;;;18.10;99.90;;;;;;6107852;23;20438;-84
2023/06/13 00:53:18;;;;;;;9.73;3.23;;;17.90;1.00;;;;;;6106467;23;20772;-85
2023/06/13 00:55:45;;;;;;;3.40;3.10;;;18.00;99.90;;;;;;6107517;23;20449;-85
2023/06/13 00:58:13;;;;;;;7.40;3.80;;;;;;;;;;6106281;23;20417;-84
2023/06/13 01:00:43;;;;;;;3.90;3.50;;;17.70;99.90;;;;;;6106768;23;20433;-84
2023/06/13 01:03:14;;;;;;;4.33;3.33;;;17.90;99.90;;;;;;6108823;23;20410;-83
2023/06/13 01:05:41;;;;;;;6.20;3.53;;;17.50;1.00;;;;;;6121463;23;20391;-85
2023/06/13 01:08:12;;;;;;;6.33;3.53;;;17.90;99.90;;;;;;6124684;23;20458;-84
2023/06/13 01:10:41;;;;;;;3.93;3.27;;;18.00;99.90;;;;;;6118194;23;20454;-84
2023/06/13 01:13:13;;;;;;;7.23;3.83;;;17.80;99.90;;;;;;6108284;23;20474;-84
2023/06/13 01:15:50;;;;;;;4.07;3.67;;;17.80;99.90;;;;;;6107881;23;20705;-84
2023/06/13 01:18:22;;;;;;;3.70;3.40;;;17.80;99.90;;;;;;6104714;23;20457;-85
2023/06/13 01:20:56;;;;;;;7.13;3.53;;;17.70;1.00;;;;;;6111804;23;20391;-84
2023/06/13 01:23:32;;;;;;;8.10;3.67;;;17.70;99.90;;;;;;6119340;23;20442;-84
2023/06/13 01:26:04;;;;;;;4.40;4.00;;;17.70;99.90;;;;;;6110725;23;20414;-84
2023/06/13 01:28:35;;;;;;;4.70;3.63;;;17.70;99.90;;;;;;6106484;23;20418;-84
2023/06/13 01:31:03;;;;;;;3.43;3.10;;;17.60;99.90;;;;;;6105486;23;21025;-84
2023/06/13 01:33:31;;;;;;;3.83;3.53;;;17.60;99.90;;;;;;6106845;23;20414;-84
2023/06/13 01:35:58;;;;;;;7.43;3.90;;;17.50;99.90;;;;;;6106751;23;20521;-84
2023/06/13 01:38:25;;;;;;;5.83;4.50;;;17.00;1.00;;;;;;6107475;23;20410;-85
2023/06/13 01:40:52;;;;;;;5.80;3.57;;;17.10;1.00;;;;;;6106183;23;20473;-84
2023/06/13 01:43:19;;;;;;;4.40;4.03;;;17.40;99.90;;;;;;6106310;23;20438;-85
2023/06/13 01:45:49;;;;;;;4.13;3.53;;;17.40;99.90;;;;;;6107165;23;20895;-84
2023/06/13 01:48:25;;;;;;;6.73;3.73;;;17.30;99.90;;;;;;6106825;23;20414;-84
2023/06/13 01:51:04;;;;;;;6.80;4.20;;;16.90;1.00;;;;;;6111497;23;20461;-84
2023/06/13 01:53:37;;;;;;;4.00;3.70;;;17.30;99.90;;;;;;6105528;23;20413;-86
2023/06/13 01:56:09;;;;;;;3.90;3.40;;;17.30;99.90;;;;;;6106359;23;20446;-84
2023/06/13 01:58:49;;;;;;;5.33;3.93;;;17.20;99.90;;;;;;6104542;23;20463;-84
2023/06/13 02:01:19;;;;;;;3.67;3.40;;;17.20;99.90;;;;;;6105859;23;20477;-83
2023/06/13 02:03:46;;;;;;;4.43;4.03;;;17.20;99.90;;;;;;6118877;23;20409;-83
2023/06/13 02:06:13;;;;;;;5.13;4.30;;;17.20;99.90;;;;;;6117738;23;20409;-84
2023/06/13 02:08:40;;;;;;;7.13;4.00;;;17.20;99.90;;;;;;6120517;23;20406;-84
2023/06/13 02:11:07;;;;;;;5.73;3.80;;;17.10;99.90;;;;;;6121092;23;20438;-84
2023/06/13 02:13:34;;;;;;;6.93;3.50;;;17.00;99.90;;;;;;6119213;23;20462;-84
2023/06/13 02:16:01;;;;;;;4.40;3.90;;;17.00;99.90;;;;;;6121342;23;20402;-85
2023/06/13 02:18:30;;;;;;;13.43;4.70;;;16.90;99.90;;;;;;6111256;23;20417;-84
2023/06/13 02:20:57;;;;;;;5.50;3.53;;;16.90;99.90;;;;;;6109193;23;20473;-84
2023/06/13 02:23:24;;;;;;;5.80;4.00;;;16.80;99.90;;;;;;6108293;23;20472;-84
2023/06/13 02:25:51;;;;;;;4.20;3.80;;;16.80;99.90;;;;;;6107147;23;20413;-84
2023/06/13 02:28:18;;;;;;;5.20;4.33;;;16.70;99.90;;;;;;6113621;23;20418;-84
2023/06/13 02:30:45;;;;;;;8.07;4.37;;;17.20;1.00;;;;;;6119347;23;20425;-85
2023/06/13 02:33:14;;;;;;;4.50;4.20;;;16.80;99.90;;;;;;6110566;23;20420;-85
2023/06/13 02:35:42;;;;;;;4.63;4.17;;;16.90;99.90;;;;;;6108084;23;20414;-84
2023/06/13 02:38:10;;;;;;;4.10;3.80;;;16.80;99.90;;;;;;6106863;23;20414;-85
2023/06/13 02:40:38;;;;;;;6.77;4.73;;;16.40;99.90;;;;;;6107150;23;20478;-84
2023/06/13 02:43:05;;;;;;;3.93;3.63;;;16.80;99.90;;;;;;6107714;23;20410;-84
2023/06/13 02:45:32;;;;;;;4.13;3.47;;;16.80;99.90;;;;;;6105797;23;20423;-84
2023/06/13 02:47:59;;;;;;;4.83;4.30;;;16.80;99.90;;;;;;6107977;23;20429;-85
2023/06/13 02:50:26;;;;;;;5.00;4.57;;;16.70;99.90;;;;;;6105716;23;20441;-84
2023/06/13 02:52:54;;;;;;;5.30;4.53;;;16.70;99.90;;;;;;6107637;23;20816;-84
2023/06/13 02:55:21;;;;;;;4.90;4.13;;;16.70;99.90;;;;;;6109750;23;20473;-84
2023/06/13 02:57:48;;;;;;;5.30;4.80;;;16.60;99.90;;;;;;6109899;23;20414;-84
2023/06/13 03:00:16;;;;;;;4.47;4.07;;;16.50;1.00;;;;;;6107326;23;20428;-84
2023/06/13 03:02:44;;;;;;;7.97;3.90;;;16.50;99.90;;;;;;6105847;23;20472;-83
2023/06/13 03:05:14;;;;;;;3.97;3.67;;;16.50;99.90;;;;;;6106214;23;20410;-84
2023/06/13 03:07:42;;;;;;;6.57;4.40;;;16.60;99.90;;;;;;6105884;23;20413;-85
2023/06/13 03:10:11;;;;;;;6.63;5.40;;;16.50;99.90;;;;;;6106578;23;20421;-84
2023/06/13 03:12:38;;;;;;;8.00;4.13;;;16.50;99.90;;;;;;6105661;23;20456;-84
2023/06/13 03:15:06;;;;;;;7.53;4.73;;;16.50;99.90;;;;;;6108626;23;20419;-84
2023/06/13 03:17:34;;;;;;;11.30;5.07;;;16.40;99.90;;;;;;6115269;23;20405;-82
2023/06/13 03:20:05;;;;;;;6.33;5.73;;;;;;;;;;6121895;23;20416;-83
2023/06/13 03:22:32;;;;;;;7.70;5.50;;;;;;;;;;6109250;23;20465;-86
2023/06/13 03:25:04;;;;;;;11.67;5.27;;;16.10;99.90;;;;;;6106044;23;20406;-85
2023/06/13 03:27:33;;;;;;;7.07;6.00;;;16.40;99.90;;;;;;6115593;23;20420;-85
2023/06/13 03:30:02;;;;;;;6.70;5.03;;;16.40;99.90;;;;;;6122377;23;20448;-85
2023/06/13 03:32:29;;;;;;;9.10;5.73;;;16.30;99.90;;;;;;6121692;23;20450;-85
2023/06/13 03:34:56;;;;;;;6.00;5.40;;;16.30;99.90;;;;;;6118705;23;20407;-84
2023/06/13 03:37:23;;;;;;;5.83;5.17;;;16.20;99.90;;;;;;6109802;23;20409;-84
2023/06/13 03:39:50;;;;;;;11.53;4.90;;;16.20;99.90;;;;;;6106884;23;20479;-84
2023/06/13 03:42:17;;;;;;;6.90;4.90;;;16.20;99.90;;;;;;6110175;23;20639;-84
2023/06/13 03:44:48;;;;;;;7.83;4.43;;;15.90;1.00;;;;;;6112731;23;20410;-84
2023/06/13 03:47:16;;;;;;;7.83;5.27;;;16.20;99.90;;;;;;6113631;23;20404;-84
2023/06/13 03:49:43;;;;;;;15.03;4.77;;;16.30;99.90;;;;;;6115936;23;20440;-85
2023/06/13 03:52:10;;;;;;;5.60;5.20;;;16.20;99.90;;;;;;6117127;23;20978;-84
2023/06/13 03:54:37;;;;;;;5.73;4.63;;;16.30;99.90;;;;;;6118599;23;20409;-86
2023/06/13 03:57:05;;;;;;;10.37;5.17;;;16.30;99.90;;;;;;6119670;23;20433;-86
2023/06/13 03:59:32;;;;;;;7.73;4.77;;;16.20;99.90;;;;;;6117833;23;20416;-87
2023/06/13 04:02:00;;;;;;;4.87;4.43;;;16.20;99.90;;;;;;6118649;23;20481;-87
2023/06/13 04:04:27;;;;;;;6.00;5.40;;;16.20;1.00;;;;;;6118189;23;20413;-86
2023/06/13 04:06:55;;;;;;;5.87;4.30;;;16.20;99.90;;;;;;6119775;23;20409;-84
2023/06/13 04:09:23;;;;;;;6.10;4.97;;;16.30;99.90;;;;;;6122610;23;20410;-85
2023/06/13 04:11:50;;;;;;;6.80;4.40;;;16.00;1.00;;;;;;6122099;23;20490;-87
2023/06/13 04:14:16;;;;;;;5.53;4.67;;;16.60;1.00;;;;;;6122177;23;20404;-83
2023/06/13 04:16:44;;;;;;;8.40;4.63;;;16.30;99.90;;;;;;6126153;23;20399;-83
2023/06/13 04:19:18;;;;;;;5.43;4.93;;;16.30;99.90;;;;;;6121830;23;20419;-86
2023/06/13 04:21:47;;;;;;;10.17;4.80;;;16.30;99.90;;;;;;6118760;23;20456;-85
2023/06/13 04:24:14;;;;;;;5.23;4.23;;;16.30;99.90;;;;;;6122883;23;20381;-83
2023/06/13 04:26:45;;;;;;;7.07;4.40;;;;;;;;;;6126190;23;20463;-83
2023/06/13 04:29:15;;;;;;;4.17;3.80;;;16.40;99.90;;;;;;6126182;23;20409;-84
2023/06/13 04:31:42;;;;;;;5.00;4.57;;;16.40;99.90;;;;;;6119783;23;20438;-85
2023/06/13 04:34:11;;;;;;;4.57;3.97;;;16.50;99.90;;;;;;6117393;23;20418;-85
2023/06/13 04:36:41;;;;;;;4.53;4.13;;;16.60;99.90;;;;;;6115963;23;20446;-85
2023/06/13 04:39:08;;;;;;;11.40;4.63;;;16.70;99.90;;;;;;6115585;23;20780;-86
2023/06/13 04:41:37;;;;;;;6.53;4.10;;;16.60;1.00;;;;;;6114880;23;20478;-85
2023/06/13 04:44:05;;;;;;;7.53;5.90;;;16.80;99.90;;;;;;6114063;23;20445;-86
2023/06/13 04:46:32;;;;;;;10.33;5.57;;;16.70;99.90;;;;;;6114620;23;20413;-84
2023/06/13 04:49:00;;;;;;;8.17;5.43;;;16.70;99.90;;;;;;6114991;23;20420;-85
2023/06/13 04:51:27;;;;;;;5.43;4.90;;;17.00;1.00;;;;;;6116045;23;20419;-86
2023/06/13 04:53:58;;;;;;;5.30;4.80;;;16.70;99.90;;;;;;6116407;23;20417;-86
2023/06/13 04:56:25;;;;;;;12.73;5.20;;;16.60;99.90;;;;;;6116638;23;20429;-85
2023/06/13 04:58:52;;;;;;;6.77;4.90;;;16.50;99.90;;;;;;6114773;23;20411;-86
2023/06/13 05:01:19;;;;;;;8.03;4.83;;;16.80;1.00;;;;;;6114378;23;20413;-85
2023/06/13 05:03:46;;;;;;;6.23;5.27;;;16.60;99.90;;;;;;6115421;23;20417;-86
2023/06/13 05:06:13;;;;;;;10.17;4.90;;;16.50;99.90;;;;;;6115909;23;20410;-85
2023/06/13 05:08:40;;;;;;;9.47;5.07;;;16.60;99.90;;;;;;6116347;23;20417;-86
2023/06/13 05:11:08;;;;;;;9.20;4.97;;;16.70;99.90;;;;;;6117636;23;20410;-86
2023/06/13 05:13:35;;;;;;;6.63;4.27;;;16.70;99.90;;;;;;6116204;23;20429;-85
2023/06/13 05:16:02;;;;;;;11.20;4.57;;;16.90;99.90;;;;;;6119387;23;20409;-84
2023/06/13 05:18:29;;;;;;;8.50;5.93;;;17.00;99.90;;;;;;6119983;23;20412;-85
2023/06/13 05:20:57;;;;;;;9.17;5.53;;;16.80;99.90;;;;;;6116518;23;20417;-86
2023/06/13 05:23:24;;;;;;;5.63;5.13;;;16.90;99.90;;;;;;6105501;23;20460;-84
2023/06/13 05:25:51;;;;;;;6.30;4.70;;;17.00;99.90;;;;;;6105024;23;20409;-85
2023/06/13 05:28:20;;;;;;;5.60;5.10;;;17.10;99.90;;;;;;6108334;23;20441;-84
2023/06/13 05:30:48;;;;;;;10.53;4.70;;;17.20;99.90;;;;;;6113110;23;20410;-85
2023/06/13 05:33:15;;;;;;;8.07;5.30;;;17.20;99.90;;;;;;6114054;23;20452;-85
2023/06/13 05:35:45;;;;;;;8.87;5.80;;;17.40;99.90;;;;;;6109295;23;20409;-85
2023/06/13 05:38:13;;;;;;;5.50;5.00;;;17.40;99.90;;;;;;6121472;23;20405;-84
2023/06/13 05:40:40;;;;;;;6.90;5.33;;;17.40;99.90;;;;;;6121335;23;20783;-84
2023/06/13 05:43:08;;;;;;;13.37;5.57;;;17.40;99.90;;;;;;6119878;23;20473;-84
2023/06/13 05:45:36;;;;;;;10.93;5.43;;;17.40;99.90;;;;;;6121065;23;20410;-85
2023/06/13 05:48:03;;;;;;;5.50;4.60;;;17.40;99.90;;;;;;6117891;23;20406;-85
2023/06/13 05:50:29;;;;;;;9.57;5.83;;;17.40;99.90;;;;;;6117274;23;20413;-86
2023/06/13 05:52:56;;;;;;;6.40;5.40;;;17.60;99.90;;;;;;6116216;23;20453;-85
2023/06/13 05:55:23;;;;;;;6.50;5.73;;;17.70;99.90;;;;;;6116046;23;20505;-86
2023/06/13 05:57:51;;;;;;;10.80;5.30;;;17.70;99.90;;;;;;6115967;23;20412;-86
2023/06/13 06:00:18;;;;;;;4.90;4.50;;;17.70;99.90;;;;;;6116137;23;20623;-86
2023/06/13 06:02:48;;;;;;;6.93;5.77;;;17.70;99.90;;;;;;6117105;23;20469;-86
2023/06/13 06:05:15;;;;;;;6.97;5.40;;;17.70;99.90;;;;;;6116718;23;20417;-85
2023/06/13 06:07:43;;;;;;;5.90;4.60;;;17.70;99.90;;;;;;6116023;23;20457;-86
2023/06/13 06:10:11;;;;;;;7.97;4.20;;;17.80;99.90;;;;;;6116480;23;20462;-87
2023/06/13 06:12:38;;;;;;;6.00;5.20;;;17.90;99.90;;;;;;6116428;23;20467;-84
2023/06/13 06:15:06;;;;;;;6.50;5.07;;;18.00;99.90;;;;;;6117053;23;20406;-85
2023/06/13 06:17:32;;;;;;;8.07;5.63;;;18.00;99.90;;;;;;6116104;23;20414;-84
2023/06/13 06:20:01;;;;;;;9.40;5.33;;;18.00;99.90;;;;;;6120877;23;20390;-83
2023/06/13 06:22:27;;;;;;;7.10;5.00;;;17.90;99.90;;;;;;6120311;23;20702;-85
2023/06/13 06:24:54;;;;;;;12.10;4.87;;;17.90;99.90;;;;;;6118132;23;20430;-85
2023/06/13 06:27:21;;;;;;;7.03;5.43;;;17.90;99.90;;;;;;6124803;23;20425;-84
2023/06/13 06:29:48;;;;;;;8.90;5.13;;;17.90;99.90;;;;;;6125065;23;20405;-83
2023/06/13 06:32:15;;;;;;;8.93;6.47;;;18.00;99.90;;;;;;6120724;23;20434;-85
2023/06/13 06:34:42;;;;;;;8.17;5.50;;;18.00;99.90;;;;;;6113051;23;20406;-85
2023/06/13 06:37:10;;;;;;;6.83;4.70;;;18.10;99.90;;;;;;6116050;23;20420;-85
2023/06/13 06:39:37;;;;;;;10.53;5.00;;;18.10;99.90;;;;;;6115676;23;20414;-85
2023/06/13 06:42:04;;;;;;;7.10;6.40;;;18.10;99.90;;;;;;6112636;23;20437;-84
2023/06/13 06:44:31;;;;;;;6.27;5.17;;;18.10;99.90;;;;;;6107107;23;20414;-84
2023/06/13 06:46:58;;;;;;;7.93;4.40;;;18.10;99.90;;;;;;6107813;23;20414;-83
2023/06/13 06:49:24;;;;;;;13.63;5.17;;;18.10;99.90;;;;;;6112757;23;20765;-84
2023/06/13 06:51:51;;;;;;;8.00;5.70;;;18.10;99.90;;;;;;6105954;23;20437;-84
2023/06/13 06:54:19;;;;;;;7.80;5.30;;;18.20;99.90;;;;;;6109311;23;20418;-84
2023/06/13 06:56:46;;;;;;;8.43;4.37;;;18.20;99.90;;;;;;6109896;23;20430;-84
2023/06/13 06:59:13;;;;;;;6.10;4.50;;;18.30;99.90;;;;;;6107173;23;20421;-84
2023/06/13 07:01:40;;;;;;;11.00;5.73;;;18.30;99.90;;;;;;6102950;23;20490;-85
2023/06/13 07:04:07;;;;;;;9.17;5.53;;;18.40;99.90;;;;;;6105729;23;20529;-84
2023/06/13 07:06:34;;;;;;;9.13;5.23;;;18.50;99.90;;;;;;6110665;23;20469;-85
2023/06/13 07:09:01;;;;;;;11.47;5.50;;;18.50;99.90;;;;;;6107359;23;20469;-82
2023/06/13 07:11:29;;;;;;;8.37;5.50;;;18.70;1.00;;;;;;6105434;23;20994;-83
2023/06/13 07:13:57;;;;;;;8.33;5.80;;;18.50;99.90;;;;;;6104527;23;20416;-83
2023/06/13 07:16:24;;;;;;;8.13;5.17;;;;;;;;;;6111200;23;20488;-85
2023/06/13 07:18:52;;;;;;;7.10;5.30;;;18.60;99.90;;;;;;6110355;23;20433;-84
2023/06/13 07:21:19;;;;;;;10.03;6.07;;;18.50;1.00;;;;;;6108887;23;20599;-84
2023/06/13 07:23:46;;;;;;;9.57;5.37;;;18.60;99.90;;;;;;6106390;23;20533;-82
2023/06/13 07:26:14;;;;;;;8.93;5.57;;;18.80;99.90;;;;;;6114310;23;20410;-83
2023/06/13 07:28:42;;;;;;;10.03;4.50;;;18.90;99.90;;;;;;6109404;23;20417;-83
2023/06/13 07:31:09;;;;;;;8.83;4.63;;;18.90;1.00;;;;;;6110455;23;20469;-83
2023/06/13 07:33:36;;;;;;;10.00;5.27;;;;;;;;;;6110348;23;20802;-84
2023/06/13 07:36:03;;;;;;;8.77;5.33;;;19.40;99.90;;;;;;6109644;23;20475;-84
2023/06/13 07:38:30;;;;;;;9.77;5.07;;;19.50;99.90;;;;;;6107462;23;20410;-84
2023/06/13 07:40:57;;;;;;;9.30;4.80;;;19.70;99.90;;;;;;6105826;23;20464;-84
2023/06/13 07:43:23;;;;;;;22.87;5.67;;;19.50;99.90;;;;;;6104441;23;20969;-84
2023/06/13 07:45:52;;;;;;;6.17;4.60;;;19.50;99.90;;;;;;6106127;23;20801;-84
2023/06/13 07:48:18;;;;;;;9.07;4.97;;;19.70;99.90;;;;;;6112788;23;20421;-83
2023/06/13 07:50:46;;;;;;;12.10;5.50;;;19.70;99.90;;;;;;6112665;23;20469;-84
2023/06/13 07:53:13;;;;;;;12.20;4.90;;;19.70;99.90;;;;;;6108316;23;20494;-84
2023/06/13 07:55:46;;;;;;;5.50;4.83;;;19.70;99.90;;;;;;6104617;23;20783;-84
2023/06/13 07:58:13;;;;;;;7.13;5.10;;;19.70;99.90;;;;;;6104061;23;20731;-84
2023/06/13 08:00:39;;;;;;;9.30;4.50;;;19.70;99.90;;;;;;6109726;23;20402;-84
2023/06/13 08:03:08;;;;;;;6.23;4.57;;;19.70;99.90;;;;;;6106276;23;20453;-84
2023/06/13 08:05:34;;;;;;;5.17;4.67;;;19.70;99.90;;;;;;6107915;23;20406;-84
2023/06/13 08:08:01;;;;;;;6.80;4.77;;;19.40;1.00;;;;;;6109799;23;20482;-84
2023/06/13 08:10:28;;;;;;;10.50;4.83;;;19.80;99.90;;;;;;6109227;23;20954;-85
2023/06/13 08:12:55;;;;;;;6.00;4.33;;;19.80;99.90;;;;;;6102757;23;20430;-83
2023/06/13 08:15:22;;;;;;;9.20;5.50;;;19.80;99.90;;;;;;6103971;23;20497;-84
2023/06/13 08:17:49;;;;;;;6.70;4.70;;;19.70;99.90;;;;;;6104489;23;20715;-83
2023/06/13 08:20:18;;;;;;;10.80;5.40;;;19.80;99.90;;;;;;6105778;23;20502;-83
2023/06/13 08:22:45;;;;;;;5.13;4.07;;;20.00;99.90;;;;;;6105973;23;20452;-84
2023/06/13 08:25:12;;;;;;;5.20;4.70;;;20.00;99.90;;;;;;6105687;23;20409;-83
2023/06/13 08:27:39;;;;;;;7.97;4.67;;;20.00;99.90;;;;;;6104884;23;20410;-83
2023/06/13 08:30:07;;;;;;;10.17;4.90;;;20.00;99.90;;;;;;6117388;23;20414;-81
2023/06/13 08:32:34;;;;;;;14.07;5.43;;;19.90;99.90;;;;;;6123348;23;20418;-85
2023/06/13 08:35:01;;;;;;;7.60;5.00;;;19.80;99.90;;;;;;6125408;23;20431;-84
2023/06/13 08:37:30;;;;;;;8.80;4.70;;;20.30;1.00;;;;;;6107749;23;20497;-85
2023/06/13 08:39:57;;;;;;;9.30;4.37;;;20.00;99.90;;;;;;6108105;23;20434;-85
2023/06/13 08:42:24;;;;;;;5.33;4.80;;;19.90;99.90;;;;;;6107100;23;20442;-84
2023/06/13 08:44:51;;;;;;;12.90;5.17;;;20.00;99.90;;;;;;6107873;23;20440;-85
2023/06/13 08:47:20;;;;;;;11.97;4.87;;;20.00;99.90;;;;;;6107270;23;20802;-85
2023/06/13 08:49:49;;;;;;;8.43;4.50;;;;;;;;;;6109072;23;20473;-85
2023/06/13 08:52:18;;;;;;;5.73;4.60;;;20.20;99.90;;;;;;6107160;23;20437;-85
2023/06/13 08:54:52;;;;;;;5.60;4.70;;;20.30;99.90;;;;;;6107958;23;20398;-85
2023/06/13 08:57:22;;;;;;;8.73;5.53;;;20.30;99.90;;;;;;6109294;23;20445;-85
2023/06/13 08:59:52;;;;;;;11.10;5.53;;;20.30;99.90;;;;;;6107170;23;21006;-85
2023/06/13 09:02:20;;;;;;;4.50;4.20;;;20.30;99.90;;;;;;6107181;23;20434;-85
2023/06/13 09:04:48;;;;;;;8.73;4.83;;;20.20;1.00;;;;;;6106954;23;20500;-85
2023/06/13 09:07:17;;;;;;;8.33;5.30;;;20.60;99.90;;;;;;6107459;23;20410;-85
2023/06/13 09:09:46;;;;;;;6.37;4.77;;;20.70;99.90;;;;;;6107932;23;20424;-84
2023/06/13 09:12:14;;;;;;;7.33;5.17;;;20.80;99.90;;;;;;6108525;23;20425;-85
2023/06/13 09:14:41;;;;;;;4.83;4.43;;;20.80;99.90;;;;;;6105094;23;20406;-85
2023/06/13 09:17:09;;;;;;;6.33;4.93;;;21.00;1.00;;;;;;6106265;23;20432;-85
2023/06/13 09:19:36;;;;;;;11.13;5.97;;;20.90;99.90;;;;;;6106968;23;20493;-84
2023/06/13 09:22:03;;;;;;;12.37;5.63;;;21.00;99.90;;;;;;6105493;23;20456;-84
2023/06/13 09:24:31;;;;;;;9.43;4.90;;;21.10;99.90;;;;;;6105503;23;20442;-83
2023/06/13 09:27:02;;;;;;;4.63;4.33;;;21.30;99.90;;;;;;6106498;23;20432;-84
2023/06/13 09:29:35;;;;;;;9.97;4.80;;;21.50;99.90;;;;;;6106243;23;20398;-84
2023/06/13 09:32:05;;;;;;;9.53;6.13;;;21.60;99.90;;;;;;6108679;23;20429;-83
2023/06/13 09:34:33;;;;;;;9.33;6.40;;;;;;;;;;6105727;23;20413;-84
2023/06/13 09:37:00;;;;;;;9.00;4.40;;;21.70;99.90;;;;;;6106143;23;20414;-84
2023/06/13 09:39:28;;;;;;;17.83;4.50;;;21.80;99.90;;;;;;6105921;23;20493;-84
2023/06/13 09:41:55;;;;;;;6.47;3.67;;;21.80;99.90;;;;;;6104757;23;20434;-85
2023/06/13 09:44:25;;;;;;;6.80;3.90;;;21.80;99.90;;;;;;6103908;23;20500;-84
2023/06/13 09:46:55;;;;;;;5.43;2.90;;;22.00;99.90;;;;;;6105158;23;20406;-83
2023/06/13 09:49:23;;;;;;;4.73;3.57;;;22.20;99.90;;;;;;6108614;23;20459;-84
2023/06/13 09:51:52;;;;;;;6.63;3.40;;;22.30;99.90;;;;;;6106475;23;20985;-83
2023/06/13 09:54:19;;;;;;;9.20;3.90;;;22.40;99.90;;;;;;6107246;23;20473;-85
2023/06/13 09:56:46;;;;;;;9.50;3.70;;;22.90;1.00;;;;;;6108057;23;20437;-84
2023/06/13 09:59:17;;;;;;;5.80;3.63;;;22.40;99.90;;;;;;6119341;23;20397;-82
2023/06/13 10:01:48;;;;;;;6.37;3.93;;;22.30;99.90;;;;;;6111965;23;20919;-84
2023/06/13 10:04:15;;;;;;;6.07;4.03;;;22.20;99.90;;;;;;6105905;23;20464;-84
2023/06/13 10:06:42;;;;;;;13.47;4.57;;;22.30;99.90;;;;;;6106966;23;20473;-83
2023/06/13 10:09:10;;;;;;;4.63;4.23;;;22.40;99.90;;;;;;6105137;23;20406;-84
2023/06/13 10:11:40;;;;;;;6.77;4.43;;;22.30;99.90;;;;;;6105070;23;20409;-83
2023/06/13 10:14:10;;;;;;;8.33;3.83;;;22.30;99.90;;;;;;6116905;23;20436;-84
2023/06/13 10:16:41;;;;;;;5.03;4.00;;;22.40;99.90;;;;;;6117472;23;20402;-82
2023/06/13 10:19:12;;;;;;;7.73;4.30;;;22.50;99.90;;;;;;6109256;23;20433;-84
2023/06/13 10:21:39;;;;;;;4.93;3.43;;;;;;;;;;6111668;23;20457;-86
2023/06/13 10:24:07;;;;;;;4.23;3.30;;;22.40;99.90;;;;;;6103764;23;20513;-85
2023/06/13 10:26:37;;;;;;;3.23;2.93;;;22.40;99.90;;;;;;6103594;23;20442;-84
2023/06/13 10:29:47;;;;;;;4.57;4.03;;;22.90;99.90;;;;;;6105342;23;20410;-84
2023/06/13 10:32:28;;;;;;;4.13;3.57;;;22.40;99.90;;;;;;6019199;23;20460;-84
2023/06/13 10:35:18;;;;;;;4.20;3.80;;;22.40;99.90;;;;;;6101854;23;20437;-85
2023/06/13 10:38:19;;;;;;;3.40;2.60;;;22.30;99.90;;;;;;6105751;23;20453;-86
2023/06/13 10:41:05;;;;;;;4.67;3.73;;;22.20;99.90;;;;;;6107190;23;20397;-85
2023/06/13 10:43:39;;;;;;;5.67;3.80;;;22.20;99.90;;;;;;6112131;23;20434;-84
2023/06/13 10:46:08;;;;;;;4.47;3.50;;;22.00;99.90;;;;;;6102908;23;20394;-85
2023/06/13 10:48:38;;;;;;;5.87;4.03;;;21.90;99.90;;;;;;6107025;23;20816;-84
2023/06/13 10:51:09;;;;;;;5.83;3.30;;;21.90;99.90;;;;;;6121546;23;20489;-84
2023/06/13 10:53:37;;;;;;;6.77;3.57;;;;;;;;;;6112468;23;20398;-85
2023/06/13 10:56:07;;;;;;;4.83;3.40;;;21.10;99.90;;;;;;6107003;23;20415;-86
2023/06/13 10:58:35;;;;;;;6.53;3.80;;;21.80;99.90;;;;;;6105117;23;20489;-85
2023/06/13 11:01:29;;;;;;;5.80;4.10;;;21.80;99.90;;;;;;6105965;23;20471;-85
2023/06/13 11:04:06;;;;;;;14.97;5.13;;;21.60;99.90;;;;;;6103973;23;20513;-86
2023/06/13 11:06:34;;;;;;;8.77;5.10;;;21.80;99.90;;;;;;6104344;23;20421;-84
2023/06/13 11:09:25;;;;;;;4.10;3.80;;;21.80;99.90;;;;;;6104342;23;20736;-84
2023/06/13 11:11:54;;;;;;;4.03;3.10;;;21.70;99.90;;;;;;6083945;23;20521;-85
2023/06/13 11:14:22;;;;;;;5.50;3.83;;;21.80;99.90;;;;;;6103973;23;20402;-84
2023/06/13 11:16:49;;;;;;;12.30;3.60;;;21.50;1.00;;;;;;6104687;23;20416;-85
2023/06/13 11:19:17;;;;;;;9.50;3.43;;;21.90;99.90;;;;;;6104400;23;20473;-85
2023/06/13 11:21:47;;;;;;;7.50;4.70;;;22.00;99.90;;;;;;6104455;23;20584;-85
2023/06/13 11:24:18;;;;;;;5.20;4.37;;;22.00;99.90;;;;;;6104578;23;20528;-83
2023/06/13 11:26:46;;;;;;;4.67;4.00;;;22.10;99.90;;;;;;6111613;23;20379;-83
2023/06/13 11:29:16;;;;;;;7.53;3.80;;;22.20;99.90;;;;;;6103072;23;20477;-91
2023/06/13 11:31:43;;;;;;;8.63;3.30;;;;;;;;;;6104069;23;20419;-84
2023/06/13 11:34:16;;;;;;;8.00;3.70;;;22.30;99.90;;;;;;6104737;23;20410;-85
2023/06/13 11:36:46;;;;;;;12.93;4.60;;;22.20;99.90;;;;;;6103778;23;20862;-85
2023/06/13 11:39:16;;;;;;;5.20;4.80;;;22.20;99.90;;;;;;6104722;23;20420;-85
2023/06/13 11:41:44;;;;;;;8.00;4.40;;;22.20;99.90;;;;;;6106483;23;20923;-84
2023/06/13 11:44:13;;;;;;;6.53;3.33;;;22.20;99.90;;;;;;6106065;23;20441;-85
2023/06/13 11:46:44;;;;;;;4.57;3.10;;;22.30;99.90;;;;;;6105031;23;20481;-84
2023/06/13 11:49:15;;;;;;;4.00;3.30;;;22.40;99.90;;;;;;6104124;23;20785;-85
2023/06/13 11:51:43;;;;;;;9.90;4.43;;;22.40;99.90;;;;;;6105389;23;20498;-84
2023/06/13 11:54:12;;;;;;;5.73;3.27;;;22.60;99.90;;;;;;6107603;23;20461;-85
2023/06/13 11:56:51;;;;;;;9.30;4.60;;;23.00;1.00;;;;;;6111081;23;20496;-85
2023/06/13 11:59:20;;;;;;;4.77;3.90;;;22.50;99.90;;;;;;6110389;23;20398;-84
2023/06/13 12:01:49;;;;;;;8.63;4.67;;;22.60;99.90;;;;;;6108752;23;20430;-85
2023/06/13 12:04:16;;;;;;;3.97;3.57;;;22.60;99.90;;;;;;6107667;23;20492;-85
2023/06/13 12:06:43;;;;;;;13.43;3.80;;;22.40;99.90;;;;;;6110008;23;20473;-85
2023/06/13 12:09:14;;;;;;;5.40;3.60;;;22.20;99.90;;;;;;6112519;23;20439;-84
2023/06/13 12:11:41;;;;;;;8.60;3.40;;;22.20;99.90;;;;;;6116534;23;20436;-82
2023/06/13 12:14:08;;;;;;;7.23;3.83;;;22.50;99.90;;;;;;6112769;23;20433;-86
2023/06/13 12:16:37;;;;;;;6.03;3.53;;;22.40;99.90;;;;;;6118960;23;20475;-85
2023/06/13 12:19:04;;;;;;;12.10;5.07;;;22.40;99.90;;;;;;6119199;23;20379;-86
2023/06/13 12:21:33;;;;;;;10.20;4.63;;;22.40;99.90;;;;;;6109970;23;20433;-85
2023/06/13 12:24:02;;;;;;;11.23;3.40;;;22.30;99.90;;;;;;6107581;23;20461;-87
2023/06/13 12:26:33;;;;;;;3.90;3.03;;;22.50;99.90;;;;;;6106934;23;20485;-86
2023/06/13 12:29:02;;;;;;;6.00;3.33;;;22.70;99.90;;;;;;6108572;23;20402;-85
2023/06/13 12:31:34;;;;;;;4.30;3.20;;;22.70;99.90;;;;;;6111707;23;20417;-84
2023/06/13 12:34:13;;;;;;;4.33;3.63;;;22.60;99.90;;;;;;6113276;23;20386;-84
2023/06/13 12:36:44;;;;;;;10.00;3.30;;;22.60;99.90;;;;;;6105068;23;20418;-83
2023/06/13 12:39:11;;;;;;;3.80;2.87;;;22.50;99.90;;;;;;6107016;23;20395;-85
2023/06/13 12:41:44;;;;;;;3.70;3.00;;;22.30;99.90;;;;;;6107052;23;20919;-85
2023/06/13 12:44:11;;;;;;;5.87;3.07;;;22.30;99.90;;;;;;6106018;23;20494;-85
2023/06/13 12:46:39;;;;;;;5.33;3.43;;;22.20;99.90;;;;;;6108868;23;20493;-84
2023/06/13 12:49:10;;;;;;;4.90;4.20;;;22.20;99.90;;;;;;6120431;23;20413;-84
2023/06/13 12:51:42;;;;;;;5.50;3.07;;;22.10;99.90;;;;;;6111659;23;20485;-83
2023/06/13 12:54:12;;;;;;;3.63;3.00;;;21.90;99.90;;;;;;6111645;23;20394;-84
2023/06/13 12:56:49;;;;;;;7.30;3.13;;;22.10;99.90;;;;;;6107301;23;20394;-84
2023/06/13 12:59:18;;;;;;;5.20;3.73;;;22.20;1.00;;;;;;6106395;23;20410;-84